createdAt,value
2023-04-28T00:01:02.841Z,7.80
2023-04-28T00:03:35.720Z,7.80
2023-04-28T00:06:06.242Z,7.70
2023-04-28T00:08:36.601Z,7.70
2023-04-28T00:11:06.804Z,7.70
2023-04-28T00:13:36.829Z,7.70
2023-04-28T00:16:07.223Z,7.70
2023-04-28T00:18:39.908Z,7.70
2023-04-28T00:21:10.136Z,7.70
2023-04-28T00:23:40.311Z,7.70
2023-04-28T00:26:10.579Z,7.70
2023-04-28T00:28:41.425Z,7.70
2023-04-28T00:31:14.557Z,7.70
2023-04-28T00:33:47.797Z,7.70
2023-04-28T00:36:17.869Z,7.70
2023-04-28T00:38:47.921Z,7.70
2023-04-28T00:41:17.898Z,7.70
2023-04-28T00:43:49.250Z,7.70
2023-04-28T00:46:25.280Z,7.80
2023-04-28T00:48:58.540Z,7.80
2023-04-28T00:51:29.301Z,7.80
2023-04-28T00:54:00.138Z,7.90
2023-04-28T00:56:31.412Z,7.90
2023-04-28T00:59:01.736Z,7.90
2023-04-28T01:01:32.323Z,7.90
2023-04-28T01:04:05.360Z,7.90
2023-04-28T01:06:37.546Z,7.90
2023-04-28T01:09:07.782Z,8.00
2023-04-28T01:11:39.086Z,8.00
2023-04-28T01:14:11.775Z,8.00
2023-04-28T01:16:44.686Z,8.00
2023-04-28T01:19:23.084Z,8.00
2023-04-28T01:21:54.953Z,8.00
2023-04-28T01:24:29.176Z,8.00
2023-04-28T01:27:03.158Z,8.10
2023-04-28T01:29:33.154Z,8.10
2023-04-28T01:32:03.801Z,8.10
2023-04-28T01:34:33.953Z,8.10
2023-04-28T01:37:04.125Z,8.10
2023-04-28T01:39:37.684Z,8.10
2023-04-28T01:42:08.146Z,8.10
2023-04-28T01:44:38.197Z,8.20
2023-04-28T01:47:08.588Z,8.20
2023-04-28T01:49:38.964Z,8.20
2023-04-28T01:52:11.324Z,8.10
2023-04-28T01:54:43.934Z,8.10
2023-04-28T01:57:14.441Z,8.10
2023-04-28T01:59:45.762Z,8.20
2023-04-28T02:02:16.080Z,8.20
2023-04-28T02:04:46.367Z,8.20
2023-04-28T02:07:16.447Z,8.20
2023-04-28T02:09:49.337Z,8.20
2023-04-28T02:12:19.401Z,8.70
2023-04-28T02:14:49.412Z,8.20
2023-04-28T02:17:19.533Z,8.10
2023-04-28T02:19:49.566Z,8.10
2023-04-28T02:22:19.684Z,8.10
2023-04-28T02:24:52.465Z,8.10
2023-04-28T02:27:23.079Z,8.00
2023-04-28T02:29:53.284Z,8.00
2023-04-28T02:32:24.876Z,8.10
2023-04-28T02:34:56.663Z,8.10
2023-04-28T02:37:27.030Z,8.10
2023-04-28T02:39:59.668Z,8.10
2023-04-28T02:42:29.703Z,8.10
2023-04-28T02:44:59.721Z,8.10
2023-04-28T02:47:29.796Z,8.10
2023-04-28T02:49:59.854Z,8.10
2023-04-28T02:52:30.053Z,8.20
2023-04-28T02:55:03.922Z,8.20
2023-04-28T02:57:34.215Z,8.10
2023-04-28T03:00:05.628Z,8.10
2023-04-28T03:02:43.525Z,8.10
2023-04-28T03:05:13.666Z,8.10
2023-04-28T03:07:43.821Z,8.10
2023-04-28T03:10:16.674Z,8.10
2023-04-28T03:12:46.791Z,8.10
2023-04-28T03:15:16.878Z,8.10
2023-04-28T03:17:47.132Z,8.00
2023-04-28T03:20:17.355Z,8.10
2023-04-28T03:22:47.920Z,8.40
2023-04-28T03:25:20.977Z,8.20
2023-04-28T03:27:54.271Z,8.20
2023-04-28T03:30:25.352Z,8.30
2023-04-28T03:32:55.488Z,8.30
2023-04-28T03:35:25.655Z,8.30
2023-04-28T03:37:55.831Z,8.40
2023-04-28T03:40:28.964Z,8.30
2023-04-28T03:43:31.326Z,8.30
2023-04-28T03:46:15.052Z,8.40
2023-04-28T03:48:46.315Z,8.40
2023-04-28T03:51:16.753Z,8.40
2023-04-28T03:53:46.777Z,8.40
2023-04-28T03:56:19.677Z,8.40
2023-04-28T03:58:49.841Z,8.40
2023-04-28T04:01:20.223Z,8.40
2023-04-28T04:03:52.030Z,8.40
2023-04-28T04:06:22.495Z,8.40
2023-04-28T04:08:53.077Z,8.50
2023-04-28T04:11:25.844Z,8.50
2023-04-28T04:13:55.897Z,8.50
2023-04-28T04:16:29.704Z,8.60
2023-04-28T04:19:01.191Z,8.60
2023-04-28T04:21:44.736Z,8.60
2023-04-28T04:24:14.991Z,8.60
2023-04-28T04:26:48.286Z,8.70
2023-04-28T04:29:37.543Z,8.70
2023-04-28T04:32:14.024Z,8.70
2023-04-28T04:34:45.305Z,8.70
2023-04-28T04:37:15.423Z,8.70
2023-04-28T04:39:55.201Z,8.70
2023-04-28T04:42:27.838Z,8.70
2023-04-28T04:45:20.194Z,8.80
2023-04-28T04:47:50.578Z,8.80
2023-04-28T04:50:21.244Z,8.80
2023-04-28T04:52:51.404Z,8.70
2023-04-28T04:55:22.828Z,8.70
2023-04-28T04:57:55.478Z,8.60
2023-04-28T05:00:43.914Z,8.60
2023-04-28T05:03:15.051Z,8.60
2023-04-28T05:05:46.347Z,8.50
2023-04-28T05:08:23.394Z,8.40
2023-04-28T05:10:53.413Z,8.40
2023-04-28T05:13:26.208Z,8.40
2023-04-28T05:16:02.489Z,8.30
2023-04-28T05:18:56.284Z,8.20
2023-04-28T05:21:26.648Z,8.20
2023-04-28T05:23:57.578Z,8.20
2023-04-28T05:26:27.909Z,8.20
2023-04-28T05:29:04.231Z,8.20
2023-04-28T05:31:34.430Z,8.20
2023-04-28T05:34:04.719Z,8.20
2023-04-28T05:36:34.918Z,8.20
2023-04-28T05:39:05.417Z,8.20
2023-04-28T05:41:35.533Z,8.20
2023-04-28T05:44:08.782Z,8.20
2023-04-28T05:46:40.087Z,8.30
2023-04-28T05:49:11.769Z,8.30
2023-04-28T05:51:42.700Z,8.30
2023-04-28T05:54:12.813Z,8.40
2023-04-28T05:56:47.997Z,8.40
2023-04-28T05:59:20.817Z,8.60
2023-04-28T06:01:51.085Z,8.60
2023-04-28T06:04:21.631Z,8.60
2023-04-28T06:06:53.126Z,8.70
2023-04-28T06:09:23.194Z,8.70
2023-04-28T06:11:53.284Z,8.70
2023-04-28T06:14:26.296Z,8.80
2023-04-28T06:16:56.446Z,8.80
2023-04-28T06:19:26.525Z,8.80
2023-04-28T06:21:56.573Z,8.80
2023-04-28T06:24:26.868Z,8.80
2023-04-28T06:26:59.059Z,11.40
2023-04-28T06:29:32.279Z,8.90
2023-04-28T06:32:02.363Z,8.90
2023-04-28T06:34:33.023Z,9.00
2023-04-28T06:37:03.143Z,9.00
2023-04-28T06:39:33.225Z,9.10
2023-04-28T06:42:03.372Z,9.10
2023-04-28T06:44:39.063Z,9.20
2023-04-28T06:47:09.262Z,9.20
2023-04-28T06:49:44.126Z,9.30
2023-04-28T06:52:14.515Z,9.30
2023-04-28T06:54:44.744Z,9.30
2023-04-28T06:57:14.797Z,9.40
2023-04-28T06:59:47.396Z,9.50
2023-04-28T07:02:17.694Z,9.50
2023-04-28T07:04:48.474Z,9.50
2023-04-28T07:07:18.670Z,9.50
2023-04-28T07:09:48.729Z,9.40
2023-04-28T07:12:18.774Z,9.30
2023-04-28T07:14:51.807Z,9.30
2023-04-28T07:17:22.149Z,9.30
2023-04-28T07:19:52.797Z,9.30
2023-04-28T07:22:22.868Z,9.30
2023-04-28T07:24:52.952Z,9.30
2023-04-28T07:27:23.447Z,9.40
2023-04-28T07:29:56.137Z,9.30
2023-04-28T07:32:26.220Z,9.20
2023-04-28T07:34:56.320Z,9.20
2023-04-28T07:37:26.332Z,9.20
2023-04-28T07:39:56.345Z,9.20
2023-04-28T07:42:27.544Z,9.10
2023-04-28T07:45:00.609Z,9.00
2023-04-28T07:47:30.687Z,9.60
2023-04-28T07:50:03.690Z,8.90
2023-04-28T07:52:34.262Z,8.80
2023-04-28T07:55:04.720Z,8.70
2023-04-28T07:57:35.101Z,8.70
2023-04-28T08:00:09.891Z,8.70
2023-04-28T08:02:42.986Z,8.70
2023-04-28T08:05:13.456Z,8.60
2023-04-28T08:07:43.723Z,8.60
2023-04-28T08:10:14.376Z,8.60
2023-04-28T08:12:45.400Z,8.60
2023-04-28T08:15:18.577Z,8.60
2023-04-28T08:17:48.884Z,8.60
2023-04-28T08:20:21.629Z,8.60
2023-04-28T08:22:53.573Z,8.60
2023-04-28T08:25:23.784Z,9.40
2023-04-28T08:27:57.147Z,8.60
2023-04-28T08:30:30.237Z,8.70
2023-04-28T08:33:00.550Z,8.80
2023-04-28T08:35:30.644Z,8.80
2023-04-28T08:38:00.768Z,8.80
2023-04-28T08:40:31.637Z,8.80
2023-04-28T08:43:02.565Z,8.90
2023-04-28T08:45:43.659Z,9.00
2023-04-28T08:48:22.259Z,9.00
2023-04-28T08:50:55.006Z,9.10
2023-04-28T08:53:28.276Z,9.10
2023-04-28T08:56:00.205Z,9.20
2023-04-28T08:58:31.534Z,9.30
2023-04-28T09:01:05.103Z,9.30
2023-04-28T09:03:35.593Z,9.30
2023-04-28T09:06:06.591Z,9.30
2023-04-28T09:08:36.710Z,9.30
2023-04-28T09:11:11.355Z,9.20
2023-04-28T09:13:41.432Z,9.30
2023-04-28T09:16:14.590Z,9.30
2023-04-28T09:18:59.853Z,9.20
2023-04-28T09:21:29.844Z,9.20
2023-04-28T09:23:59.882Z,9.20
2023-04-28T09:26:29.903Z,9.10
2023-04-28T09:29:15.793Z,9.10
2023-04-28T09:31:48.812Z,9.10
2023-04-28T09:34:19.085Z,9.10
2023-04-28T09:36:49.249Z,9.10
2023-04-28T09:39:31.574Z,9.20
2023-04-28T09:42:03.694Z,9.10
2023-04-28T09:44:33.759Z,9.10
2023-04-28T09:47:23.572Z,9.10
2023-04-28T09:49:58.015Z,9.20
2023-04-28T09:52:28.250Z,9.20
2023-04-28T09:54:59.830Z,9.20
2023-04-28T09:57:34.396Z,9.30
2023-04-28T10:00:07.007Z,9.50
2023-04-28T10:02:43.739Z,9.60
2023-04-28T10:05:15.281Z,9.70
2023-04-28T10:07:46.220Z,9.90
2023-04-28T10:10:17.227Z,9.90
2023-04-28T10:12:47.283Z,10.00
2023-04-28T10:15:17.482Z,10.00
2023-04-28T10:17:53.458Z,10.00
2023-04-28T10:20:26.337Z,10.10
2023-04-28T10:23:05.447Z,10.10
2023-04-28T10:25:39.293Z,10.10
2023-04-28T10:28:10.759Z,10.10
2023-04-28T10:30:40.844Z,10.20
2023-04-28T10:33:31.511Z,10.20
2023-04-28T10:36:01.588Z,10.20
2023-04-28T10:38:31.644Z,10.20
2023-04-28T10:41:03.281Z,10.20
2023-04-28T10:43:38.225Z,10.20
2023-04-28T10:46:10.095Z,10.10
2023-04-28T10:49:00.779Z,10.00
2023-04-28T10:51:39.437Z,10.10
2023-04-28T10:54:22.641Z,10.20
2023-04-28T10:57:22.928Z,10.20
2023-04-28T10:59:54.414Z,10.20
2023-04-28T11:02:44.431Z,10.30
2023-04-28T11:05:22.244Z,10.40
2023-04-28T11:08:32.070Z,10.50
2023-04-28T11:11:21.357Z,10.70
2023-04-28T11:13:52.097Z,10.70
2023-04-28T11:16:24.603Z,10.80
2023-04-28T11:19:14.288Z,10.80
2023-04-28T11:21:47.142Z,10.90
2023-04-28T11:24:17.690Z,10.90
2023-04-28T11:26:48.088Z,10.90
2023-04-28T11:29:18.226Z,10.90
2023-04-28T11:31:53.204Z,10.90
2023-04-28T11:34:24.415Z,11.00
2023-04-28T11:36:57.248Z,10.90
2023-04-28T11:39:32.326Z,10.90
2023-04-28T11:42:03.810Z,11.00
2023-04-28T11:44:34.583Z,11.00
2023-04-28T11:47:06.925Z,11.10
2023-04-28T11:49:46.335Z,11.20
2023-04-28T11:52:20.038Z,11.40
2023-04-28T11:54:56.827Z,11.50
2023-04-28T11:57:27.094Z,11.50
2023-04-28T11:59:57.148Z,11.40
2023-04-28T12:02:31.963Z,11.50
2023-04-28T12:05:09.296Z,11.50
2023-04-28T12:07:46.971Z,11.40
2023-04-28T12:10:19.942Z,11.40
2023-04-28T12:12:53.010Z,11.50
2023-04-28T12:15:25.590Z,11.50
2023-04-28T12:17:55.687Z,11.50
2023-04-28T12:20:39.586Z,11.60
2023-04-28T12:23:12.473Z,11.60
2023-04-28T12:25:49.314Z,11.70
2023-04-28T12:28:19.330Z,11.70
2023-04-28T12:30:49.333Z,11.80
2023-04-28T12:33:27.232Z,11.80
2023-04-28T12:36:04.383Z,11.80
2023-04-28T12:38:50.729Z,11.80
2023-04-28T12:41:20.713Z,11.90
2023-04-28T12:43:50.763Z,12.00
2023-04-28T12:46:20.885Z,12.30
2023-04-28T12:48:51.390Z,12.40
2023-04-28T12:51:21.908Z,12.40
2023-04-28T12:53:54.577Z,12.40
2023-04-28T12:56:24.905Z,12.30
2023-04-28T12:58:54.956Z,12.30
2023-04-28T13:01:25.291Z,12.20
2023-04-28T13:03:55.394Z,12.20
2023-04-28T13:06:25.599Z,12.30
2023-04-28T13:08:58.242Z,12.20
2023-04-28T13:11:28.895Z,12.20
2023-04-28T13:13:59.593Z,12.30
2023-04-28T13:16:31.239Z,12.30
2023-04-28T13:19:01.491Z,12.30
2023-04-28T13:21:32.185Z,12.30
2023-04-28T13:24:04.876Z,12.40
2023-04-28T13:26:34.920Z,12.40
2023-04-28T13:29:05.171Z,12.40
2023-04-28T13:31:35.302Z,12.60
2023-04-28T13:34:06.270Z,13.20
2023-04-28T13:36:36.440Z,12.60
2023-04-28T13:39:11.672Z,12.50
2023-04-28T13:41:41.684Z,12.60
2023-04-28T13:44:12.283Z,12.60
2023-04-28T13:46:42.326Z,12.70
2023-04-28T13:49:13.096Z,12.80
2023-04-28T13:51:43.125Z,12.90
2023-04-28T13:54:15.772Z,13.00
2023-04-28T13:56:45.988Z,13.00
2023-04-28T13:59:16.892Z,14.30
2023-04-28T14:01:46.960Z,13.10
2023-04-28T14:04:17.138Z,13.20
2023-04-28T14:06:47.420Z,13.30
2023-04-28T14:09:20.048Z,13.50
2023-04-28T14:11:50.093Z,13.40
2023-04-28T14:14:20.227Z,13.50
2023-04-28T14:16:50.941Z,14.60
2023-04-28T14:19:21.266Z,13.40
2023-04-28T14:21:51.565Z,15.10
2023-04-28T14:24:24.362Z,13.50
2023-04-28T14:26:55.666Z,13.50
2023-04-28T14:29:25.675Z,13.50
2023-04-28T14:31:55.670Z,13.50
2023-04-28T14:34:25.720Z,14.30
2023-04-28T14:36:55.833Z,13.50
2023-04-28T14:39:28.755Z,13.70
2023-04-28T14:41:58.890Z,13.70
2023-04-28T14:44:28.864Z,13.80
2023-04-28T14:46:59.246Z,13.80
2023-04-28T14:49:29.514Z,13.70
2023-04-28T14:52:00.956Z,13.90
2023-04-28T14:54:33.729Z,14.00
2023-04-28T14:57:04.291Z,14.00
2023-04-28T14:59:35.697Z,14.10
2023-04-28T15:02:06.264Z,14.10
2023-04-28T15:04:39.608Z,14.20
2023-04-28T15:07:10.431Z,14.30
2023-04-28T15:09:44.065Z,14.40
2023-04-28T15:12:14.141Z,14.40
2023-04-28T15:14:44.398Z,14.10
2023-04-28T15:17:14.455Z,14.00
2023-04-28T15:19:44.523Z,14.00
2023-04-28T15:22:14.596Z,14.40
2023-04-28T15:24:47.543Z,13.90
2023-04-28T15:29:48.094Z,13.90
2023-04-28T15:32:18.396Z,16.50
2023-04-28T15:34:49.173Z,13.80
2023-04-28T15:37:45.049Z,13.70
2023-04-28T15:40:19.467Z,13.70
2023-04-28T15:42:53.092Z,13.80
2023-04-28T15:45:24.421Z,13.70
2023-04-28T15:47:55.197Z,13.70
2023-04-28T15:50:25.517Z,15.60
2023-04-28T15:52:56.213Z,13.60
2023-04-28T15:55:28.909Z,13.60
2023-04-28T15:57:59.342Z,13.60
2023-04-28T16:00:29.415Z,13.60
2023-04-28T16:03:01.525Z,14.80
2023-04-28T16:05:32.118Z,13.50
2023-04-28T16:08:02.093Z,13.60
2023-04-28T16:10:34.817Z,13.60
2023-04-28T16:13:05.424Z,13.60
2023-04-28T16:15:35.607Z,13.50
2023-04-28T16:18:08.636Z,13.60
2023-04-28T16:20:38.723Z,13.50
2023-04-28T16:23:09.615Z,13.60
2023-04-28T16:25:42.343Z,15.30
2023-04-28T16:28:12.373Z,13.60
2023-04-28T16:30:42.413Z,13.70
2023-04-28T16:33:12.499Z,13.60
2023-04-28T16:35:42.503Z,13.60
2023-04-28T16:38:13.553Z,13.70
2023-04-28T16:43:22.208Z,13.70
2023-04-28T16:45:52.353Z,14.10
2023-04-28T16:48:23.853Z,14.00
2023-04-28T16:58:27.616Z,13.50
2023-04-28T17:13:34.223Z,13.60
2023-04-28T17:16:04.346Z,13.60
2023-04-28T17:33:43.864Z,13.70
2023-04-28T17:36:13.865Z,13.20
2023-04-28T18:41:40.306Z,12.50
